sensor_id;sensor_type;location;lat;lon;timestamp;temperature;humidity
8988;DHT22;4529;51.360;12.474;2023-04-06T00:03:19;2.50;99.90
8988;DHT22;4529;51.360;12.474;2023-04-06T00:08:25;2.50;99.90
8988;DHT22;4529;51.360;12.474;2023-04-06T00:13:27;2.60;99.90
8988;DHT22;4529;51.360;12.474;2023-04-06T00:18:31;2.60;99.90
8988;DHT22;4529;51.360;12.474;2023-04-06T00:23:34;2.80;99.90
8988;DHT22;4529;51.360;12.474;2023-04-06T00:28:38;2.80;99.90
8988;DHT22;4529;51.360;12.474;2023-04-06T00:33:41;2.80;99.90
8988;DHT22;4529;51.360;12.474;2023-04-06T00:38:45;2.80;99.90
8988;DHT22;4529;51.360;12.474;2023-04-06T00:43:48;2.90;99.90
8988;DHT22;4529;51.360;12.474;2023-04-06T00:48:52;2.90;99.90
8988;DHT22;4529;51.360;12.474;2023-04-06T00:53:55;3.10;99.90
8988;DHT22;4529;51.360;12.474;2023-04-06T00:58:59;3.20;99.90
8988;DHT22;4529;51.360;12.474;2023-04-06T01:04:02;3.30;99.90
8988;DHT22;4529;51.360;12.474;2023-04-06T01:09:05;3.40;99.90
8988;DHT22;4529;51.360;12.474;2023-04-06T01:14:09;3.70;99.90
8988;DHT22;4529;51.360;12.474;2023-04-06T01:19:13;3.70;99.90
8988;DHT22;4529;51.360;12.474;2023-04-06T01:24:16;3.80;99.90
8988;DHT22;4529;51.360;12.474;2023-04-06T01:29:19;3.90;99.90
8988;DHT22;4529;51.360;12.474;2023-04-06T01:34:23;4.00;99.90
8988;DHT22;4529;51.360;12.474;2023-04-06T01:39:28;4.00;99.90
8988;DHT22;4529;51.360;12.474;2023-04-06T01:44:31;4.00;99.90
8988;DHT22;4529;51.360;12.474;2023-04-06T01:49:34;4.10;99.90
8988;DHT22;4529;51.360;12.474;2023-04-06T01:54:38;4.10;99.90
8988;DHT22;4529;51.360;12.474;2023-04-06T01:59:42;4.20;99.90
8988;DHT22;4529;51.360;12.474;2023-04-06T02:04:46;4.30;99.90
8988;DHT22;4529;51.360;12.474;2023-04-06T02:09:53;4.30;99.90
8988;DHT22;4529;51.360;12.474;2023-04-06T02:14:54;4.30;99.90
8988;DHT22;4529;51.360;12.474;2023-04-06T02:19:58;4.30;99.90
8988;DHT22;4529;51.360;12.474;2023-04-06T02:25:01;4.30;99.90
8988;DHT22;4529;51.360;12.474;2023-04-06T02:30:08;4.40;99.90
8988;DHT22;4529;51.360;12.474;2023-04-06T02:35:11;4.40;99.90
8988;DHT22;4529;51.360;12.474;2023-04-06T02:40:15;4.40;99.90
8988;DHT22;4529;51.360;12.474;2023-04-06T02:45:18;4.40;99.90
8988;DHT22;4529;51.360;12.474;2023-04-06T02:50:22;4.40;99.90
8988;DHT22;4529;51.360;12.474;2023-04-06T02:55:26;4.40;99.90
8988;DHT22;4529;51.360;12.474;2023-04-06T03:00:30;4.40;99.90
8988;DHT22;4529;51.360;12.474;2023-04-06T03:05:34;4.40;99.90
8988;DHT22;4529;51.360;12.474;2023-04-06T03:10:37;4.40;99.90
8988;DHT22;4529;51.360;12.474;2023-04-06T03:15:40;4.40;99.90
8988;DHT22;4529;51.360;12.474;2023-04-06T03:20:44;4.50;99.90
8988;DHT22;4529;51.360;12.474;2023-04-06T03:25:49;4.40;99.90
8988;DHT22;4529;51.360;12.474;2023-04-06T03:30:53;4.40;99.90
8988;DHT22;4529;51.360;12.474;2023-04-06T03:35:56;4.40;99.90
8988;DHT22;4529;51.360;12.474;2023-04-06T03:41:00;4.50;99.90
8988;DHT22;4529;51.360;12.474;2023-04-06T03:46:03;4.40;99.90
8988;DHT22;4529;51.360;12.474;2023-04-06T03:51:07;4.30;99.90
8988;DHT22;4529;51.360;12.474;2023-04-06T03:56:11;4.30;99.90
8988;DHT22;4529;51.360;12.474;2023-04-06T04:01:16;4.30;99.90
8988;DHT22;4529;51.360;12.474;2023-04-06T04:06:19;4.30;99.90
8988;DHT22;4529;51.360;12.474;2023-04-06T04:11:22;4.30;99.90
8988;DHT22;4529;51.360;12.474;2023-04-06T04:16:26;4.20;99.90
8988;DHT22;4529;51.360;12.474;2023-04-06T04:21:29;4.10;99.90
8988;DHT22;4529;51.360;12.474;2023-04-06T04:26:33;4.10;99.90
8988;DHT22;4529;51.360;12.474;2023-04-06T04:31:37;4.00;99.90
8988;DHT22;4529;51.360;12.474;2023-04-06T04:36:42;4.00;99.90
8988;DHT22;4529;51.360;12.474;2023-04-06T04:41:45;4.00;99.90
8988;DHT22;4529;51.360;12.474;2023-04-06T04:46:49;3.90;99.90
8988;DHT22;4529;51.360;12.474;2023-04-06T04:51:53;3.90;99.90
8988;DHT22;4529;51.360;12.474;2023-04-06T04:56:57;3.80;99.90
8988;DHT22;4529;51.360;12.474;2023-04-06T05:02:01;3.80;99.90
8988;DHT22;4529;51.360;12.474;2023-04-06T05:07:08;3.80;99.90
8988;DHT22;4529;51.360;12.474;2023-04-06T05:12:11;3.80;99.90
8988;DHT22;4529;51.360;12.474;2023-04-06T05:17:16;3.90;99.90
8988;DHT22;4529;51.360;12.474;2023-04-06T05:22:20;3.90;99.90
8988;DHT22;4529;51.360;12.474;2023-04-06T05:27:24;3.70;99.90
8988;DHT22;4529;51.360;12.474;2023-04-06T05:32:27;3.70;99.90
8988;DHT22;4529;51.360;12.474;2023-04-06T05:37:31;3.50;99.90
8988;DHT22;4529;51.360;12.474;2023-04-06T05:42:38;3.50;99.90
8988;DHT22;4529;51.360;12.474;2023-04-06T05:47:41;3.60;99.90
8988;DHT22;4529;51.360;12.474;2023-04-06T05:52:44;3.70;99.90
8988;DHT22;4529;51.360;12.474;2023-04-06T05:57:47;3.90;99.90
8988;DHT22;4529;51.360;12.474;2023-04-06T06:02:51;4.10;99.90
8988;DHT22;4529;51.360;12.474;2023-04-06T06:07:55;4.80;99.90
8988;DHT22;4529;51.360;12.474;2023-04-06T06:12:59;5.10;99.90
8988;DHT22;4529;51.360;12.474;2023-04-06T06:18:04;5.30;99.90
8988;DHT22;4529;51.360;12.474;2023-04-06T06:23:07;5.30;99.90
8988;DHT22;4529;51.360;12.474;2023-04-06T06:28:10;5.50;99.90
8988;DHT22;4529;51.360;12.474;2023-04-06T06:33:15;6.00;99.90
8988;DHT22;4529;51.360;12.474;2023-04-06T06:38:19;6.30;99.90
8988;DHT22;4529;51.360;12.474;2023-04-06T06:43:23;6.40;99.90
8988;DHT22;4529;51.360;12.474;2023-04-06T06:48:26;6.30;99.90
8988;DHT22;4529;51.360;12.474;2023-04-06T06:53:30;6.30;99.90
8988;DHT22;4529;51.360;12.474;2023-04-06T06:58:33;6.40;99.90
8988;DHT22;4529;51.360;12.474;2023-04-06T07:03:37;6.50;99.90
8988;DHT22;4529;51.360;12.474;2023-04-06T07:08:41;6.60;99.90
8988;DHT22;4529;51.360;12.474;2023-04-06T07:13:44;6.60;99.90
8988;DHT22;4529;51.360;12.474;2023-04-06T07:18:48;6.70;99.90
8988;DHT22;4529;51.360;12.474;2023-04-06T07:23:51;6.90;99.90
8988;DHT22;4529;51.360;12.474;2023-04-06T07:28:55;7.30;99.90
8988;DHT22;4529;51.360;12.474;2023-04-06T07:33:59;7.70;99.90
8988;DHT22;4529;51.360;12.474;2023-04-06T07:39:04;8.10;99.90
8988;DHT22;4529;51.360;12.474;2023-04-06T07:44:07;8.10;99.90
8988;DHT22;4529;51.360;12.474;2023-04-06T07:49:11;8.20;99.90
8988;DHT22;4529;51.360;12.474;2023-04-06T07:54:14;8.40;99.90
8988;DHT22;4529;51.360;12.474;2023-04-06T07:59:18;8.60;99.90
8988;DHT22;4529;51.360;12.474;2023-04-06T08:04:22;9.00;99.90
8988;DHT22;4529;51.360;12.474;2023-04-06T08:09:26;9.30;99.90
8988;DHT22;4529;51.360;12.474;2023-04-06T08:14:30;9.40;99.90
8988;DHT22;4529;51.360;12.474;2023-04-06T08:19:34;9.50;99.90
8988;DHT22;4529;51.360;12.474;2023-04-06T08:24:38;9.70;99.90
8988;DHT22;4529;51.360;12.474;2023-04-06T08:29:42;9.70;99.90
8988;DHT22;4529;51.360;12.474;2023-04-06T08:34:46;9.90;99.90
8988;DHT22;4529;51.360;12.474;2023-04-06T08:39:51;9.90;99.90
8988;DHT22;4529;51.360;12.474;2023-04-06T08:44:54;9.90;99.90
8988;DHT22;4529;51.360;12.474;2023-04-06T08:49:57;10.00;99.90
8988;DHT22;4529;51.360;12.474;2023-04-06T08:55:01;10.10;99.90
8988;DHT22;4529;51.360;12.474;2023-04-06T09:00:05;10.10;99.90
8988;DHT22;4529;51.360;12.474;2023-04-06T09:05:09;10.10;99.90
8988;DHT22;4529;51.360;12.474;2023-04-06T09:10:13;10.30;99.90
8988;DHT22;4529;51.360;12.474;2023-04-06T09:15:20;10.30;99.90
8988;DHT22;4529;51.360;12.474;2023-04-06T09:20:24;10.70;99.90
8988;DHT22;4529;51.360;12.474;2023-04-06T09:25:28;11.00;99.90
8988;DHT22;4529;51.360;12.474;2023-04-06T09:30:32;10.80;99.90
8988;DHT22;4529;51.360;12.474;2023-04-06T09:35:37;10.60;99.90
8988;DHT22;4529;51.360;12.474;2023-04-06T09:40:50;10.80;99.90
8988;DHT22;4529;51.360;12.474;2023-04-06T09:45:54;10.80;99.90
8988;DHT22;4529;51.360;12.474;2023-04-06T09:50:59;11.30;99.90
8988;DHT22;4529;51.360;12.474;2023-04-06T09:56:02;11.10;99.90
8988;DHT22;4529;51.360;12.474;2023-04-06T10:01:15;11.40;98.40
8988;DHT22;4529;51.360;12.474;2023-04-06T10:06:19;11.40;98.50
8988;DHT22;4529;51.360;12.474;2023-04-06T10:11:22;11.40;97.50
8988;DHT22;4529;51.360;12.474;2023-04-06T10:16:25;11.20;97.30
8988;DHT22;4529;51.360;12.474;2023-04-06T10:21:28;10.90;96.20
8988;DHT22;4529;51.360;12.474;2023-04-06T10:26:32;11.30;95.30
8988;DHT22;4529;51.360;12.474;2023-04-06T10:31:39;11.50;96.60
8988;DHT22;4529;51.360;12.474;2023-04-06T10:36:39;11.70;94.20
8988;DHT22;4529;51.360;12.474;2023-04-06T10:41:44;11.50;95.30
8988;DHT22;4529;51.360;12.474;2023-04-06T10:46:57;11.60;94.40
8988;DHT22;4529;51.360;12.474;2023-04-06T10:52:00;11.60;94.40
8988;DHT22;4529;51.360;12.474;2023-04-06T10:57:03;11.70;93.60
8988;DHT22;4529;51.360;12.474;2023-04-06T11:02:07;11.70;93.30
8988;DHT22;4529;51.360;12.474;2023-04-06T11:07:10;11.70;92.80
8988;DHT22;4529;51.360;12.474;2023-04-06T11:12:26;11.40;93.70
8988;DHT22;4529;51.360;12.474;2023-04-06T11:17:28;11.40;92.80
8988;DHT22;4529;51.360;12.474;2023-04-06T11:22:32;11.70;91.80
8988;DHT22;4529;51.360;12.474;2023-04-06T11:27:36;11.70;91.80
8988;DHT22;4529;51.360;12.474;2023-04-06T11:32:40;11.80;91.60
8988;DHT22;4529;51.360;12.474;2023-04-06T11:37:43;11.60;90.90
8988;DHT22;4529;51.360;12.474;2023-04-06T11:42:53;11.60;90.80
8988;DHT22;4529;51.360;12.474;2023-04-06T11:47:57;11.80;91.40
8988;DHT22;4529;51.360;12.474;2023-04-06T11:53:00;11.50;90.30
8988;DHT22;4529;51.360;12.474;2023-04-06T11:58:03;11.50;89.90
8988;DHT22;4529;51.360;12.474;2023-04-06T12:03:06;11.20;90.90
8988;DHT22;4529;51.360;12.474;2023-04-06T12:08:10;11.10;90.90
8988;DHT22;4529;51.360;12.474;2023-04-06T12:13:13;11.00;90.90
8988;DHT22;4529;51.360;12.474;2023-04-06T12:18:17;11.30;90.00
8988;DHT22;4529;51.360;12.474;2023-04-06T12:23:20;11.10;90.50
8988;DHT22;4529;51.360;12.474;2023-04-06T12:28:24;11.10;90.60
8988;DHT22;4529;51.360;12.474;2023-04-06T12:33:27;11.10;90.70
8988;DHT22;4529;51.360;12.474;2023-04-06T12:38:31;11.40;88.20
8988;DHT22;4529;51.360;12.474;2023-04-06T12:43:34;11.70;88.20
8988;DHT22;4529;51.360;12.474;2023-04-06T12:48:38;11.80;89.40
8988;DHT22;4529;51.360;12.474;2023-04-06T12:53:41;11.60;83.70
8988;DHT22;4529;51.360;12.474;2023-04-06T12:58:45;11.50;85.50
8988;DHT22;4529;51.360;12.474;2023-04-06T13:03:48;11.50;85.30
8988;DHT22;4529;51.360;12.474;2023-04-06T13:08:52;11.50;87.20
8988;DHT22;4529;51.360;12.474;2023-04-06T13:13:55;11.50;87.60
8988;DHT22;4529;51.360;12.474;2023-04-06T13:18:58;11.50;84.90
8988;DHT22;4529;51.360;12.474;2023-04-06T13:24:02;11.50;87.20
8988;DHT22;4529;51.360;12.474;2023-04-06T13:29:06;11.50;84.70
8988;DHT22;4529;51.360;12.474;2023-04-06T13:34:09;11.60;87.80
8988;DHT22;4529;51.360;12.474;2023-04-06T13:39:12;11.60;88.00
8988;DHT22;4529;51.360;12.474;2023-04-06T13:44:16;11.50;88.40
8988;DHT22;4529;51.360;12.474;2023-04-06T13:49:20;11.40;84.40
8988;DHT22;4529;51.360;12.474;2023-04-06T13:54:23;11.40;84.10
8988;DHT22;4529;51.360;12.474;2023-04-06T13:59:33;11.50;86.50
8988;DHT22;4529;51.360;12.474;2023-04-06T14:04:36;11.50;83.70
8988;DHT22;4529;51.360;12.474;2023-04-06T14:09:40;11.80;83.20
8988;DHT22;4529;51.360;12.474;2023-04-06T14:14:44;11.70;83.10
8988;DHT22;4529;51.360;12.474;2023-04-06T14:19:47;11.90;86.30
8988;DHT22;4529;51.360;12.474;2023-04-06T14:24:50;12.00;83.60
8988;DHT22;4529;51.360;12.474;2023-04-06T14:29:54;12.00;82.50
8988;DHT22;4529;51.360;12.474;2023-04-06T14:34:58;12.20;81.30
8988;DHT22;4529;51.360;12.474;2023-04-06T14:40:01;12.20;79.40
8988;DHT22;4529;51.360;12.474;2023-04-06T14:45:05;12.20;80.90
8988;DHT22;4529;51.360;12.474;2023-04-06T14:50:10;12.10;79.80
8988;DHT22;4529;51.360;12.474;2023-04-06T14:55:13;12.20;80.00
8988;DHT22;4529;51.360;12.474;2023-04-06T15:00:17;12.20;80.70
8988;DHT22;4529;51.360;12.474;2023-04-06T15:05:20;12.10;79.10
8988;DHT22;4529;51.360;12.474;2023-04-06T15:10:24;12.20;79.30
8988;DHT22;4529;51.360;12.474;2023-04-06T15:15:27;12.20;80.90
8988;DHT22;4529;51.360;12.474;2023-04-06T15:20:31;12.20;80.50
8988;DHT22;4529;51.360;12.474;2023-04-06T15:25:35;12.20;78.50
8988;DHT22;4529;51.360;12.474;2023-04-06T15:30:40;12.20;79.10
8988;DHT22;4529;51.360;12.474;2023-04-06T15:35:44;12.10;78.90
8988;DHT22;4529;51.360;12.474;2023-04-06T15:40:47;12.20;79.60
8988;DHT22;4529;51.360;12.474;2023-04-06T15:45:51;12.10;78.20
8988;DHT22;4529;51.360;12.474;2023-04-06T15:50:56;12.10;78.90
8988;DHT22;4529;51.360;12.474;2023-04-06T15:56:01;12.10;78.00
8988;DHT22;4529;51.360;12.474;2023-04-06T16:01:13;12.10;75.10
8988;DHT22;4529;51.360;12.474;2023-04-06T16:06:17;12.10;79.70
8988;DHT22;4529;51.360;12.474;2023-04-06T16:11:21;12.10;79.70
8988;DHT22;4529;51.360;12.474;2023-04-06T16:16:24;12.10;78.40
8988;DHT22;4529;51.360;12.474;2023-04-06T16:21:28;12.00;79.00
8988;DHT22;4529;51.360;12.474;2023-04-06T16:26:31;12.00;78.00
8988;DHT22;4529;51.360;12.474;2023-04-06T16:31:35;12.00;78.30
8988;DHT22;4529;51.360;12.474;2023-04-06T16:36:39;12.00;77.40
8988;DHT22;4529;51.360;12.474;2023-04-06T16:41:42;11.90;85.90
8988;DHT22;4529;51.360;12.474;2023-04-06T16:46:46;11.80;85.70
8988;DHT22;4529;51.360;12.474;2023-04-06T16:51:49;11.80;84.70
8988;DHT22;4529;51.360;12.474;2023-04-06T16:56:53;11.60;85.30
8988;DHT22;4529;51.360;12.474;2023-04-06T17:01:56;11.50;86.50
8988;DHT22;4529;51.360;12.474;2023-04-06T17:07:00;11.50;88.30
8988;DHT22;4529;51.360;12.474;2023-04-06T17:12:04;11.40;89.10
8988;DHT22;4529;51.360;12.474;2023-04-06T17:17:07;11.20;90.00
8988;DHT22;4529;51.360;12.474;2023-04-06T17:22:10;11.20;90.20
8988;DHT22;4529;51.360;12.474;2023-04-06T17:27:14;11.10;90.20
8988;DHT22;4529;51.360;12.474;2023-04-06T17:32:18;10.90;90.50
8988;DHT22;4529;51.360;12.474;2023-04-06T17:37:21;10.80;91.20
8988;DHT22;4529;51.360;12.474;2023-04-06T17:42:24;10.60;91.90
8988;DHT22;4529;51.360;12.474;2023-04-06T17:47:28;10.20;92.40
8988;DHT22;4529;51.360;12.474;2023-04-06T17:52:32;9.70;93.50
8988;DHT22;4529;51.360;12.474;2023-04-06T17:57:36;9.60;93.20
8988;DHT22;4529;51.360;12.474;2023-04-06T18:02:40;9.40;92.90
8988;DHT22;4529;51.360;12.474;2023-04-06T18:07:44;9.30;93.20
8988;DHT22;4529;51.360;12.474;2023-04-06T18:12:49;9.20;93.60
8988;DHT22;4529;51.360;12.474;2023-04-06T18:17:52;9.20;93.50
8988;DHT22;4529;51.360;12.474;2023-04-06T18:22:55;9.10;93.60
8988;DHT22;4529;51.360;12.474;2023-04-06T18:27:59;9.00;93.70
8988;DHT22;4529;51.360;12.474;2023-04-06T18:33:06;8.60;94.60
8988;DHT22;4529;51.360;12.474;2023-04-06T18:38:10;8.50;95.10
8988;DHT22;4529;51.360;12.474;2023-04-06T18:43:14;8.40;95.00
8988;DHT22;4529;51.360;12.474;2023-04-06T18:48:18;8.30;95.20
8988;DHT22;4529;51.360;12.474;2023-04-06T18:53:22;8.20;95.50
8988;DHT22;4529;51.360;12.474;2023-04-06T18:58:27;8.10;95.40
8988;DHT22;4529;51.360;12.474;2023-04-06T19:03:31;8.10;95.40
8988;DHT22;4529;51.360;12.474;2023-04-06T19:08:34;8.10;95.60
8988;DHT22;4529;51.360;12.474;2023-04-06T19:13:38;7.90;96.60
8988;DHT22;4529;51.360;12.474;2023-04-06T19:18:42;7.80;96.80
8988;DHT22;4529;51.360;12.474;2023-04-06T19:23:47;7.70;97.00
8988;DHT22;4529;51.360;12.474;2023-04-06T19:28:50;7.70;96.90
8988;DHT22;4529;51.360;12.474;2023-04-06T19:33:53;7.70;96.80
8988;DHT22;4529;51.360;12.474;2023-04-06T19:38:57;7.60;97.10
8988;DHT22;4529;51.360;12.474;2023-04-06T19:44:00;7.50;97.30
8988;DHT22;4529;51.360;12.474;2023-04-06T19:49:05;7.40;98.10
8988;DHT22;4529;51.360;12.474;2023-04-06T19:54:09;7.40;97.80
8988;DHT22;4529;51.360;12.474;2023-04-06T19:59:12;7.30;98.40
8988;DHT22;4529;51.360;12.474;2023-04-06T20:04:16;7.00;98.90
8988;DHT22;4529;51.360;12.474;2023-04-06T20:09:20;7.00;99.00
8988;DHT22;4529;51.360;12.474;2023-04-06T20:14:23;7.00;98.70
8988;DHT22;4529;51.360;12.474;2023-04-06T20:19:27;6.90;99.10
8988;DHT22;4529;51.360;12.474;2023-04-06T20:24:30;6.80;99.50
8988;DHT22;4529;51.360;12.474;2023-04-06T20:29:34;6.60;99.90
8988;DHT22;4529;51.360;12.474;2023-04-06T20:34:38;6.40;99.90
8988;DHT22;4529;51.360;12.474;2023-04-06T20:39:42;6.40;99.90
8988;DHT22;4529;51.360;12.474;2023-04-06T20:44:46;6.40;99.90
8988;DHT22;4529;51.360;12.474;2023-04-06T20:49:50;6.30;99.90
8988;DHT22;4529;51.360;12.474;2023-04-06T20:54:54;6.30;99.90
8988;DHT22;4529;51.360;12.474;2023-04-06T20:59:57;6.30;99.90
8988;DHT22;4529;51.360;12.474;2023-04-06T21:05:01;6.30;99.90
8988;DHT22;4529;51.360;12.474;2023-04-06T21:10:04;6.20;99.90
8988;DHT22;4529;51.360;12.474;2023-04-06T21:15:08;6.20;99.90
8988;DHT22;4529;51.360;12.474;2023-04-06T21:20:12;6.10;99.90
8988;DHT22;4529;51.360;12.474;2023-04-06T21:25:16;6.20;99.90
8988;DHT22;4529;51.360;12.474;2023-04-06T21:30:20;6.20;99.90
8988;DHT22;4529;51.360;12.474;2023-04-06T21:35:24;6.20;99.90
8988;DHT22;4529;51.360;12.474;2023-04-06T21:40:28;6.30;99.90
8988;DHT22;4529;51.360;12.474;2023-04-06T21:45:32;6.30;99.90
8988;DHT22;4529;51.360;12.474;2023-04-06T21:50:39;6.40;99.90
8988;DHT22;4529;51.360;12.474;2023-04-06T21:55:44;6.30;99.90
8988;DHT22;4529;51.360;12.474;2023-04-06T22:00:47;6.30;99.90
8988;DHT22;4529;51.360;12.474;2023-04-06T22:05:52;6.20;99.90
8988;DHT22;4529;51.360;12.474;2023-04-06T22:10:56;6.20;99.90
8988;DHT22;4529;51.360;12.474;2023-04-06T22:16:00;6.20;99.90
8988;DHT22;4529;51.360;12.474;2023-04-06T22:21:04;6.10;99.90
8988;DHT22;4529;51.360;12.474;2023-04-06T22:26:08;6.10;99.90
8988;DHT22;4529;51.360;12.474;2023-04-06T22:31:16;6.10;99.90
8988;DHT22;4529;51.360;12.474;2023-04-06T22:36:19;6.00;99.90
8988;DHT22;4529;51.360;12.474;2023-04-06T22:41:23;5.90;99.90
8988;DHT22;4529;51.360;12.474;2023-04-06T22:46:26;5.80;99.90
8988;DHT22;4529;51.360;12.474;2023-04-06T22:51:30;5.70;99.90
8988;DHT22;4529;51.360;12.474;2023-04-06T22:56:35;5.60;99.90
8988;DHT22;4529;51.360;12.474;2023-04-06T23:01:39;5.60;99.90
8988;DHT22;4529;51.360;12.474;2023-04-06T23:06:43;5.50;99.90
8988;DHT22;4529;51.360;12.474;2023-04-06T23:11:47;5.40;99.90
8988;DHT22;4529;51.360;12.474;2023-04-06T23:16:51;5.50;99.90
8988;DHT22;4529;51.360;12.474;2023-04-06T23:21:55;5.30;99.90
8988;DHT22;4529;51.360;12.474;2023-04-06T23:26:59;5.30;99.90
8988;DHT22;4529;51.360;12.474;2023-04-06T23:32:04;5.10;99.90
8988;DHT22;4529;51.360;12.474;2023-04-06T23:37:07;5.10;99.90
8988;DHT22;4529;51.360;12.474;2023-04-06T23:42:12;5.00;99.90
8988;DHT22;4529;51.360;12.474;2023-04-06T23:47:16;4.90;99.90
8988;DHT22;4529;51.360;12.474;2023-04-06T23:52:19;4.90;99.90
8988;DHT22;4529;51.360;12.474;2023-04-06T23:57:23;4.90;99.90
